createdAt,value
2023-02-11T00:55:21.298Z,97049.00
2023-02-11T00:56:22.206Z,97055.00
2023-02-11T00:57:22.201Z,97055.00
2023-02-11T00:58:22.212Z,97055.00
2023-02-11T00:59:22.189Z,97057.00
2023-02-11T01:00:22.174Z,97055.00
2023-02-11T01:01:23.112Z,97053.00
2023-02-11T01:02:22.160Z,97051.00
2023-02-11T01:03:22.185Z,97053.00
2023-02-11T01:04:22.135Z,97051.00
2023-02-11T01:05:22.210Z,97051.00
2023-02-11T01:06:22.126Z,97053.00
2023-02-11T01:07:22.112Z,97051.00
2023-02-11T01:08:22.112Z,97051.00
2023-02-11T01:09:22.099Z,97047.00
2023-02-11T01:10:22.085Z,97045.00
2023-02-11T01:11:22.112Z,97047.00
2023-02-11T01:12:22.079Z,97045.00
2023-02-11T01:13:22.063Z,97049.00
2023-02-11T01:14:22.072Z,97045.00
2023-02-11T01:15:22.041Z,97044.00
2023-02-11T01:16:22.115Z,97042.00
2023-02-11T01:17:22.025Z,97040.00
2023-02-11T01:18:22.040Z,97042.00
2023-02-11T01:19:22.024Z,97038.00
2023-02-11T01:20:21.999Z,97040.00
2023-02-11T01:21:21.996Z,97040.00
2023-02-11T01:22:21.981Z,97038.00
2023-02-11T01:23:21.999Z,97036.00
2023-02-11T01:24:21.965Z,97040.00
2023-02-11T01:25:21.953Z,97036.00
2023-02-11T01:26:21.942Z,97034.00
2023-02-11T01:27:21.958Z,97036.00
2023-02-11T01:28:22.011Z,97036.00
2023-02-11T01:29:21.916Z,97036.00
2023-02-11T01:30:21.928Z,97036.00
2023-02-11T01:31:21.976Z,97032.00
2023-02-11T01:32:21.886Z,97034.00
2023-02-11T01:33:21.888Z,97036.00
2023-02-11T01:34:21.870Z,97034.00
2023-02-11T01:35:21.862Z,97032.00
2023-02-11T01:36:21.863Z,97036.00
2023-02-11T01:37:21.845Z,97032.00
2023-02-11T01:38:21.839Z,97032.00
2023-02-11T01:39:21.830Z,97032.00
2023-02-11T01:40:21.819Z,97030.00
2023-02-11T01:41:21.819Z,97028.00
2023-02-11T01:42:21.805Z,97030.00
2023-02-11T01:43:21.820Z,97028.00
2023-02-11T01:44:21.785Z,97030.00
2023-02-11T01:45:21.773Z,97026.00
2023-02-11T01:46:21.829Z,97026.00
2023-02-11T01:47:21.762Z,97024.00
2023-02-11T01:48:21.749Z,97022.00
2023-02-11T01:49:21.832Z,97018.00
2023-02-11T01:50:21.728Z,97022.00
2023-02-11T01:51:21.728Z,97020.00
2023-02-11T01:52:21.731Z,97020.00
2023-02-11T01:53:21.715Z,97020.00
2023-02-11T01:54:21.708Z,97018.00
2023-02-11T01:55:21.687Z,97018.00
2023-02-11T01:56:21.677Z,97018.00
2023-02-11T01:57:21.672Z,97020.00
2023-02-11T01:58:21.661Z,97018.00
2023-02-11T01:59:21.699Z,97022.00
2023-02-11T02:00:21.637Z,97020.00
2023-02-11T02:01:21.664Z,97016.00
2023-02-11T02:02:21.654Z,97014.00
2023-02-11T02:03:21.632Z,97014.00
2023-02-11T02:04:21.605Z,97012.00
2023-02-11T02:05:21.600Z,97012.00
2023-02-11T02:06:21.596Z,97014.00
2023-02-11T02:07:21.579Z,97012.00
2023-02-11T02:08:21.579Z,97010.00
2023-02-11T02:09:21.578Z,97008.00
2023-02-11T02:10:21.549Z,97008.00
2023-02-11T02:11:21.554Z,97010.00
2023-02-11T02:12:21.540Z,97008.00
2023-02-11T02:13:21.535Z,97004.00
2023-02-11T02:14:21.528Z,97004.00
2023-02-11T02:15:21.526Z,97002.00
2023-02-11T02:16:21.581Z,96998.00
2023-02-11T02:17:21.481Z,97002.00
2023-02-11T02:18:21.471Z,97000.00
2023-02-11T02:19:21.472Z,96998.00
2023-02-11T02:20:21.458Z,97000.00
2023-02-11T02:21:21.473Z,96997.00
2023-02-11T02:22:21.437Z,96998.00
2023-02-11T02:23:21.426Z,96997.00
2023-02-11T02:24:21.417Z,96995.00
2023-02-11T02:25:21.409Z,96995.00
2023-02-11T02:26:21.399Z,96995.00
2023-02-11T02:27:21.395Z,96995.00
2023-02-11T02:28:21.456Z,96997.00
2023-02-11T02:29:21.374Z,96998.00
2023-02-11T02:30:21.395Z,96997.00
2023-02-11T02:31:21.442Z,96998.00
2023-02-11T02:32:21.347Z,96998.00
2023-02-11T02:33:23.092Z,96997.00
2023-02-11T02:34:21.324Z,96995.00
2023-02-11T02:35:21.323Z,96995.00
2023-02-11T02:36:21.318Z,96993.00
2023-02-11T02:37:21.300Z,96993.00
2023-02-11T02:38:21.286Z,96989.00
2023-02-11T02:39:21.285Z,96989.00
2023-02-11T02:40:21.283Z,96987.00
2023-02-11T02:41:21.261Z,96985.00
2023-02-11T02:42:21.258Z,96985.00
2023-02-11T02:43:21.248Z,96987.00
2023-02-11T02:44:21.243Z,96985.00
2023-02-11T02:45:21.244Z,96983.00
2023-02-11T02:46:21.270Z,96985.00
2023-02-11T02:47:21.241Z,96985.00
2023-02-11T02:48:21.198Z,96979.00
2023-02-11T02:49:21.201Z,96981.00
2023-02-11T02:50:21.203Z,96979.00
2023-02-11T02:51:22.086Z,96977.00
2023-02-11T02:52:21.166Z,96979.00
2023-02-11T02:53:21.168Z,96979.00
2023-02-11T02:54:21.161Z,96975.00
2023-02-11T02:55:21.173Z,96973.00
2023-02-11T02:56:21.132Z,96975.00
2023-02-11T02:57:21.142Z,96971.00
2023-02-11T02:58:21.114Z,96973.00
2023-02-11T02:59:21.097Z,96969.00
2023-02-11T03:00:21.092Z,96971.00
2023-02-11T03:01:21.078Z,96973.00
2023-02-11T03:02:21.073Z,96975.00
2023-02-11T03:03:21.178Z,96973.00
2023-02-11T03:04:21.063Z,96973.00
2023-02-11T03:05:21.050Z,96973.00
2023-02-11T03:06:21.043Z,96971.00
2023-02-11T03:07:21.028Z,96969.00
2023-02-11T03:08:21.015Z,96967.00
2023-02-11T03:09:21.005Z,96965.00
2023-02-11T03:10:21.005Z,96969.00
2023-02-11T03:11:21.006Z,96965.00
2023-02-11T03:12:20.979Z,96965.00
2023-02-11T03:13:20.973Z,96959.00
2023-02-11T03:14:21.606Z,96965.00
2023-02-11T03:15:20.958Z,96965.00
2023-02-11T03:16:21.034Z,96967.00
2023-02-11T03:17:20.936Z,96969.00
2023-02-11T03:18:20.924Z,96967.00
2023-02-11T03:19:20.941Z,96967.00
2023-02-11T03:20:20.913Z,96967.00
2023-02-11T03:21:20.905Z,96967.00
2023-02-11T03:22:20.886Z,96973.00
2023-02-11T03:23:21.595Z,96973.00
2023-02-11T03:24:20.877Z,96973.00
2023-02-11T03:25:20.883Z,96971.00
2023-02-11T03:26:20.857Z,96969.00
2023-02-11T03:27:20.848Z,96971.00
2023-02-11T03:28:20.860Z,96967.00
2023-02-11T03:29:20.822Z,96965.00
2023-02-11T03:30:20.824Z,96965.00
2023-02-11T03:31:20.988Z,96967.00
2023-02-11T03:32:20.936Z,96965.00
2023-02-11T03:33:20.794Z,96965.00
2023-02-11T03:34:20.780Z,96963.00
2023-02-11T03:35:20.830Z,96965.00
2023-02-11T03:36:20.764Z,96965.00
2023-02-11T03:37:20.756Z,96965.00
2023-02-11T03:38:20.753Z,96965.00
2023-02-11T03:39:20.738Z,96959.00
2023-02-11T03:40:20.722Z,96965.00
2023-02-11T03:41:20.768Z,96961.00
2023-02-11T03:42:20.726Z,96965.00
2023-02-11T03:43:20.699Z,96965.00
2023-02-11T03:44:20.686Z,96965.00
2023-02-11T03:45:20.673Z,96973.00
2023-02-11T03:46:20.748Z,96971.00
2023-02-11T03:47:20.657Z,96969.00
2023-02-11T03:48:20.677Z,96963.00
2023-02-11T03:49:20.647Z,96967.00
2023-02-11T03:50:20.640Z,96965.00
2023-02-11T03:51:20.652Z,96967.00
2023-02-11T03:52:20.610Z,96967.00
2023-02-11T03:53:20.605Z,96965.00
2023-02-11T03:54:20.596Z,96961.00
2023-02-11T03:55:20.588Z,96965.00
2023-02-11T03:56:20.580Z,96963.00
2023-02-11T03:57:20.570Z,96961.00
2023-02-11T03:58:20.562Z,96959.00
2023-02-11T03:59:20.558Z,96959.00
2023-02-11T04:00:21.125Z,96957.00
2023-02-11T04:01:20.589Z,96963.00
2023-02-11T04:02:20.521Z,96963.00
2023-02-11T04:03:20.588Z,96969.00
2023-02-11T04:04:20.510Z,96969.00
2023-02-11T04:05:20.497Z,96971.00
2023-02-11T04:06:20.486Z,96975.00
2023-02-11T04:07:20.498Z,96973.00
2023-02-11T04:08:20.463Z,96975.00
2023-02-11T04:09:20.456Z,96975.00
2023-02-11T04:10:20.454Z,96979.00
2023-02-11T04:11:20.454Z,96979.00
2023-02-11T04:12:20.437Z,96979.00
2023-02-11T04:13:20.417Z,96977.00
2023-02-11T04:14:20.405Z,96979.00
2023-02-11T04:15:20.401Z,96981.00
2023-02-11T04:16:20.486Z,96979.00
2023-02-11T04:17:20.383Z,96979.00
2023-02-11T04:18:20.371Z,96977.00
2023-02-11T04:19:20.365Z,96973.00
2023-02-11T04:20:20.356Z,96973.00
2023-02-11T04:21:20.344Z,96971.00
2023-02-11T04:22:20.342Z,96969.00
2023-02-11T04:23:20.362Z,96971.00
2023-02-11T04:24:20.333Z,96969.00
2023-02-11T04:25:20.312Z,96971.00
2023-02-11T04:26:20.300Z,96971.00
2023-02-11T04:27:20.298Z,96971.00
2023-02-11T04:28:20.338Z,96969.00
2023-02-11T04:29:20.271Z,96965.00
2023-02-11T04:30:20.256Z,96959.00
2023-02-11T04:31:20.526Z,96965.00
2023-02-11T04:32:20.256Z,96965.00
2023-02-11T04:33:20.235Z,96965.00
2023-02-11T04:34:20.227Z,96969.00
2023-02-11T04:35:20.216Z,96967.00
2023-02-11T04:36:20.207Z,96963.00
2023-02-11T04:37:20.202Z,96963.00
2023-02-11T04:38:20.194Z,96961.00
2023-02-11T04:39:20.206Z,96959.00
2023-02-11T04:40:20.173Z,96963.00
2023-02-11T04:41:20.164Z,96961.00
2023-02-11T04:42:20.171Z,96963.00
2023-02-11T04:43:20.149Z,96961.00
2023-02-11T04:44:20.133Z,96961.00
2023-02-11T04:45:20.129Z,96961.00
2023-02-11T04:46:20.191Z,96963.00
2023-02-11T04:47:20.105Z,96961.00
2023-02-11T04:48:20.099Z,96961.00
2023-02-11T04:49:20.092Z,96959.00
2023-02-11T04:50:20.081Z,96959.00
2023-02-11T04:51:20.067Z,96957.00
2023-02-11T04:52:20.062Z,96959.00
2023-02-11T04:53:20.060Z,96961.00
2023-02-11T04:54:20.044Z,96961.00
2023-02-11T04:55:20.068Z,96961.00
2023-02-11T04:56:20.027Z,96963.00
2023-02-11T04:57:20.023Z,96957.00
2023-02-11T04:58:20.028Z,96961.00
2023-02-11T04:59:19.997Z,96965.00
2023-02-11T05:00:19.992Z,96969.00
2023-02-11T05:01:20.058Z,96971.00
2023-02-11T05:02:19.976Z,96971.00
2023-02-11T05:03:19.978Z,96971.00
2023-02-11T05:04:19.974Z,96969.00
2023-02-11T05:05:19.939Z,96971.00
2023-02-11T05:06:19.934Z,96973.00
2023-02-11T05:07:19.939Z,96981.00
2023-02-11T05:08:19.921Z,96979.00
2023-02-11T05:09:19.921Z,96983.00
2023-02-11T05:10:19.898Z,96983.00
2023-02-11T05:11:19.921Z,96981.00
2023-02-11T05:12:19.878Z,96979.00
2023-02-11T05:13:19.878Z,96979.00
2023-02-11T05:14:19.864Z,96979.00
2023-02-11T05:15:19.848Z,96977.00
2023-02-11T05:16:19.889Z,96975.00
2023-02-11T05:17:19.834Z,96975.00
2023-02-11T05:18:19.836Z,96975.00
2023-02-11T05:19:19.815Z,96973.00
2023-02-11T05:20:19.816Z,96973.00
2023-02-11T05:21:19.790Z,96973.00
2023-02-11T05:22:19.797Z,96973.00
2023-02-11T05:23:19.773Z,96975.00
2023-02-11T05:24:19.762Z,96973.00
2023-02-11T05:25:19.761Z,96977.00
2023-02-11T05:26:19.745Z,96975.00
2023-02-11T05:27:19.775Z,96975.00
2023-02-11T05:28:19.784Z,96979.00
2023-02-11T05:29:19.715Z,96979.00
2023-02-11T05:30:19.713Z,96981.00
2023-02-11T05:31:19.735Z,96981.00
2023-02-11T05:32:19.692Z,96983.00
2023-02-11T05:33:19.696Z,96981.00
2023-02-11T05:34:19.681Z,96983.00
2023-02-11T05:35:19.663Z,96985.00
2023-02-11T05:36:19.657Z,96985.00
2023-02-11T05:37:19.758Z,96985.00
2023-02-11T05:38:19.639Z,96985.00
2023-02-11T05:39:19.625Z,96981.00
2023-02-11T05:40:19.681Z,96983.00
2023-02-11T05:41:19.612Z,96981.00
2023-02-11T05:42:19.595Z,96979.00
2023-02-11T05:43:19.617Z,96979.00
2023-02-11T05:44:19.581Z,96977.00
2023-02-11T05:45:19.596Z,96977.00
2023-02-11T05:46:19.645Z,96977.00
2023-02-11T05:47:19.557Z,96975.00
2023-02-11T05:48:19.546Z,96977.00
2023-02-11T05:49:20.171Z,96975.00
2023-02-11T05:50:19.532Z,96973.00
2023-02-11T05:51:19.514Z,96973.00
2023-02-11T05:52:19.508Z,96975.00
2023-02-11T05:53:19.501Z,96977.00
2023-02-11T05:54:20.151Z,96977.00
2023-02-11T05:55:19.481Z,96979.00
2023-02-11T05:56:19.463Z,96977.00
2023-02-11T05:57:19.459Z,96975.00
2023-02-11T05:58:19.447Z,96975.00
2023-02-11T05:59:19.472Z,96973.00
2023-02-11T06:00:19.443Z,96973.00
2023-02-11T06:01:19.439Z,96973.00
2023-02-11T06:02:19.435Z,96973.00
2023-02-11T06:03:19.433Z,96977.00
2023-02-11T06:04:19.399Z,96977.00
2023-02-11T06:05:19.386Z,96979.00
2023-02-11T06:06:19.382Z,96979.00
2023-02-11T06:07:19.367Z,96977.00
2023-02-11T06:08:19.364Z,96979.00
2023-02-11T06:09:19.355Z,96981.00
2023-02-11T06:10:19.342Z,96981.00
2023-02-11T06:11:19.332Z,96983.00
2023-02-11T06:12:19.378Z,96983.00
2023-02-11T06:13:19.306Z,96983.00
2023-02-11T06:14:19.396Z,96981.00
2023-02-11T06:15:19.319Z,96983.00
2023-02-11T06:16:19.329Z,96979.00
2023-02-11T06:17:19.360Z,96979.00
2023-02-11T06:18:19.279Z,96977.00
2023-02-11T06:19:19.252Z,96977.00
2023-02-11T06:20:19.243Z,96979.00
2023-02-11T06:21:19.240Z,96979.00
2023-02-11T06:22:19.234Z,96977.00
2023-02-11T06:23:20.191Z,96979.00
2023-02-11T06:24:38.393Z,96979.00
2023-02-11T06:25:19.196Z,96979.00
2023-02-11T06:26:19.188Z,96979.00
2023-02-11T06:27:19.189Z,96977.00
2023-02-11T06:28:19.242Z,96979.00
2023-02-11T06:29:19.166Z,96975.00
2023-02-11T06:30:19.153Z,96979.00
2023-02-11T06:31:19.264Z,96979.00
2023-02-11T06:32:39.456Z,96981.00
2023-02-11T06:33:19.180Z,96983.00
2023-02-11T06:34:19.112Z,96985.00
2023-02-11T06:35:19.104Z,96985.00
2023-02-11T06:36:19.099Z,96987.00
2023-02-11T06:37:19.092Z,96989.00
2023-02-11T06:38:19.124Z,96989.00
2023-02-11T06:39:19.079Z,96989.00
2023-02-11T06:40:19.066Z,96987.00
2023-02-11T06:41:19.051Z,96987.00
2023-02-11T06:42:19.049Z,96987.00
2023-02-11T06:43:19.043Z,96987.00
2023-02-11T06:44:19.027Z,96987.00
2023-02-11T06:45:19.014Z,96989.00
2023-02-11T06:46:21.821Z,96991.00
2023-02-11T06:47:19.003Z,96989.00
2023-02-11T06:48:18.987Z,96987.00
2023-02-11T06:49:18.977Z,96987.00
2023-02-11T06:50:18.974Z,96987.00
2023-02-11T06:51:18.961Z,96983.00
2023-02-11T06:52:18.952Z,96983.00
2023-02-11T06:53:18.979Z,96983.00
2023-02-11T06:54:18.933Z,96983.00
2023-02-11T06:55:18.929Z,96983.00
2023-02-11T06:56:18.928Z,96987.00
2023-02-11T06:57:19.680Z,96989.00
2023-02-11T06:58:18.896Z,96991.00
2023-02-11T06:59:18.887Z,96993.00
2023-02-11T07:00:18.886Z,96997.00
2023-02-11T07:01:18.873Z,96998.00
2023-02-11T07:02:21.005Z,96997.00
2023-02-11T07:03:18.930Z,96993.00
2023-02-11T07:04:18.836Z,96997.00
2023-02-11T07:05:18.840Z,96995.00
2023-02-11T07:06:18.823Z,96991.00
2023-02-11T07:07:18.810Z,96991.00
2023-02-11T07:08:18.841Z,96987.00
2023-02-11T07:09:18.802Z,96989.00
2023-02-11T07:10:18.783Z,96987.00
2023-02-11T07:11:18.778Z,96987.00
2023-02-11T07:12:18.769Z,96987.00
2023-02-11T07:13:18.760Z,96985.00
2023-02-11T07:14:18.758Z,96987.00
2023-02-11T07:15:18.741Z,96985.00
2023-02-11T07:16:18.820Z,96985.00
2023-02-11T07:17:18.731Z,96983.00
2023-02-11T07:18:18.736Z,96981.00
2023-02-11T07:19:18.706Z,96977.00
2023-02-11T07:20:18.708Z,96975.00
2023-02-11T07:21:18.705Z,96971.00
2023-02-11T07:22:18.676Z,96967.00
2023-02-11T07:23:18.671Z,96965.00
2023-02-11T07:24:18.669Z,96963.00
2023-02-11T07:25:18.648Z,96961.00
2023-02-11T07:26:18.644Z,96959.00
2023-02-11T07:27:18.635Z,96959.00
2023-02-11T07:28:18.676Z,96959.00
2023-02-11T07:29:18.619Z,96959.00
2023-02-11T07:30:18.599Z,96959.00
2023-02-11T07:31:18.728Z,96959.00
2023-02-11T07:32:18.737Z,96961.00
2023-02-11T07:33:18.568Z,96963.00
2023-02-11T07:34:18.725Z,96963.00
2023-02-11T07:35:18.554Z,96961.00
2023-02-11T07:36:18.548Z,96963.00
2023-02-11T07:37:18.612Z,96967.00
2023-02-11T07:38:18.532Z,96963.00
2023-02-11T07:39:18.517Z,96963.00
2023-02-11T07:40:18.503Z,96963.00
2023-02-11T07:41:18.508Z,96965.00
2023-02-11T07:42:18.485Z,96963.00
2023-02-11T07:43:18.486Z,96963.00
2023-02-11T07:44:18.472Z,96967.00
2023-02-11T07:45:18.474Z,96971.00
2023-02-11T07:46:18.481Z,96971.00
2023-02-11T07:47:18.438Z,96971.00
2023-02-11T07:48:18.427Z,96971.00
2023-02-11T07:49:18.420Z,96967.00
2023-02-11T07:50:18.439Z,96963.00
2023-02-11T07:51:18.406Z,96959.00
2023-02-11T07:52:18.394Z,96959.00
2023-02-11T07:53:18.382Z,96957.00
2023-02-11T07:54:18.381Z,96957.00
2023-02-11T07:55:18.367Z,96957.00
2023-02-11T07:56:18.388Z,96959.00
2023-02-11T07:57:18.359Z,96961.00
2023-02-11T07:58:18.335Z,96963.00
2023-02-11T07:59:18.403Z,96967.00
2023-02-11T08:00:21.103Z,96967.00
2023-02-11T08:01:18.449Z,96967.00
2023-02-11T08:02:18.388Z,96971.00
2023-02-11T08:03:18.288Z,96971.00
2023-02-11T08:04:18.282Z,96969.00
2023-02-11T08:05:18.273Z,96965.00
2023-02-11T08:06:18.293Z,96965.00
2023-02-11T08:07:18.257Z,96967.00
2023-02-11T08:08:18.241Z,96969.00
2023-02-11T08:09:19.221Z,96969.00
2023-02-11T08:10:18.224Z,96967.00
2023-02-11T08:11:19.209Z,96965.00
2023-02-11T08:12:18.212Z,96963.00
2023-02-11T08:13:18.202Z,96961.00
2023-02-11T08:14:18.193Z,96961.00
2023-02-11T08:15:18.178Z,96963.00
2023-02-11T08:16:18.240Z,96957.00
2023-02-11T08:17:18.158Z,96955.00
2023-02-11T08:18:18.154Z,96953.00
2023-02-11T08:19:20.705Z,96941.00
2023-02-11T08:20:18.145Z,96941.00
2023-02-11T08:21:18.122Z,96937.00
2023-02-11T08:22:18.134Z,96937.00
2023-02-11T08:23:18.104Z,96939.00
2023-02-11T08:24:18.093Z,96951.00
2023-02-11T08:25:18.085Z,96941.00
2023-02-11T08:26:18.091Z,96943.00
2023-02-11T08:27:18.070Z,96943.00
2023-02-11T08:28:18.056Z,96951.00
2023-02-11T08:29:18.051Z,96951.00
2023-02-11T08:30:18.034Z,96951.00
2023-02-11T08:31:18.176Z,96955.00
2023-02-11T08:32:18.090Z,96951.00
2023-02-11T08:33:18.012Z,96953.00
2023-02-11T08:34:18.002Z,96953.00
2023-02-11T08:35:17.997Z,96955.00
2023-02-11T08:36:17.976Z,96957.00
2023-02-11T08:37:17.976Z,96955.00
2023-02-11T08:38:17.990Z,96953.00
2023-02-11T08:39:20.354Z,96953.00
2023-02-11T08:40:17.945Z,96951.00
2023-02-11T08:41:17.952Z,96943.00
2023-02-11T08:42:17.925Z,96951.00
2023-02-11T08:43:17.915Z,96941.00
2023-02-11T08:44:17.908Z,96937.00
2023-02-11T08:45:17.897Z,96936.00
2023-02-11T08:46:17.992Z,96936.00
2023-02-11T08:47:17.881Z,96934.00
2023-02-11T08:48:17.871Z,96934.00
2023-02-11T08:49:17.926Z,96934.00
2023-02-11T08:50:17.855Z,96934.00
2023-02-11T08:51:17.843Z,96930.00
2023-02-11T08:52:17.832Z,96928.00
2023-02-11T08:53:17.824Z,96926.00
2023-02-11T08:54:17.851Z,96924.00
2023-02-11T08:55:17.810Z,96922.00
2023-02-11T08:56:17.808Z,96926.00
2023-02-11T08:57:17.797Z,96924.00
2023-02-11T08:58:19.208Z,96928.00
2023-02-11T08:59:17.818Z,96926.00
2023-02-11T09:00:17.780Z,96928.00
2023-02-11T09:01:17.860Z,96926.00
2023-02-11T09:02:17.860Z,96926.00
2023-02-11T09:03:17.759Z,96926.00
2023-02-11T09:04:17.743Z,96920.00
2023-02-11T09:05:17.738Z,96916.00
2023-02-11T09:06:17.725Z,96920.00
2023-02-11T09:07:17.720Z,96920.00
2023-02-11T09:08:17.709Z,96920.00
2023-02-11T09:09:17.723Z,96916.00
2023-02-11T09:10:17.731Z,96914.00
2023-02-11T09:11:17.682Z,96914.00
2023-02-11T09:12:17.671Z,96914.00
2023-02-11T09:13:17.660Z,96916.00
2023-02-11T09:14:17.652Z,96920.00
2023-02-11T09:15:17.640Z,96922.00
2023-02-11T09:16:17.662Z,96930.00
2023-02-11T09:17:17.626Z,96928.00
2023-02-11T09:18:17.618Z,96928.00
2023-02-11T09:19:17.652Z,96924.00
2023-02-11T09:20:18.221Z,96926.00
2023-02-11T09:21:17.588Z,96916.00
2023-02-11T09:22:17.574Z,96916.00
2023-02-11T09:23:18.694Z,96918.00
2023-02-11T09:24:17.611Z,96916.00
2023-02-11T09:25:17.566Z,96916.00
2023-02-11T09:26:17.573Z,96920.00
2023-02-11T09:27:18.232Z,96928.00
2023-02-11T09:28:18.237Z,96932.00
2023-02-11T09:29:17.513Z,96930.00
2023-02-11T09:30:17.505Z,96928.00
2023-02-11T09:31:17.698Z,96924.00
2023-02-11T09:32:17.598Z,96920.00
2023-02-11T09:33:17.475Z,96920.00
2023-02-11T09:34:17.471Z,96922.00
2023-02-11T09:35:17.460Z,96924.00
2023-02-11T09:36:17.445Z,96928.00
2023-02-11T09:37:17.435Z,96922.00
2023-02-11T09:38:17.430Z,96922.00
2023-02-11T09:39:17.420Z,96916.00
2023-02-11T09:40:17.412Z,96912.00
2023-02-11T09:41:17.406Z,96912.00
2023-02-11T09:42:17.414Z,96906.00
2023-02-11T09:43:17.384Z,96904.00
2023-02-11T09:44:17.380Z,96902.00
2023-02-11T09:45:17.368Z,96900.00
2023-02-11T09:46:17.521Z,96896.00
2023-02-11T09:47:17.346Z,96894.00
2023-02-11T09:48:17.342Z,96896.00
2023-02-11T09:49:17.331Z,96892.00
2023-02-11T09:50:17.330Z,96889.00
2023-02-11T09:51:17.311Z,96889.00
2023-02-11T09:52:17.298Z,96889.00
2023-02-11T09:53:17.292Z,96890.00
2023-02-11T09:54:17.286Z,96894.00
2023-02-11T09:55:17.273Z,96892.00
2023-02-11T09:56:17.273Z,96890.00
2023-02-11T09:57:28.292Z,96892.00
2023-02-11T09:58:17.269Z,96894.00
2023-02-11T09:59:17.237Z,96890.00
2023-02-11T10:00:17.747Z,96887.00
2023-02-11T10:01:19.949Z,96887.00
2023-02-11T10:02:17.221Z,96887.00
2023-02-11T10:03:17.219Z,96887.00
2023-02-11T10:04:17.229Z,96887.00
2023-02-11T10:05:17.745Z,96890.00
2023-02-11T10:06:17.171Z,96892.00
2023-02-11T10:07:17.166Z,96898.00
2023-02-11T10:08:17.221Z,96894.00
2023-02-11T10:09:17.147Z,96894.00
2023-02-11T10:10:17.135Z,96890.00
2023-02-11T10:11:30.708Z,96896.00
2023-02-11T10:12:17.121Z,96890.00
2023-02-11T10:13:17.116Z,96894.00
2023-02-11T10:14:17.134Z,96889.00
2023-02-11T10:15:17.089Z,96892.00
2023-02-11T10:16:17.120Z,96889.00
2023-02-11T10:17:17.079Z,96889.00
2023-02-11T10:18:17.067Z,96892.00
2023-02-11T10:19:17.058Z,96894.00
2023-02-11T10:20:17.320Z,96894.00
2023-02-11T10:21:17.034Z,96894.00
2023-02-11T10:22:17.035Z,96896.00
2023-02-11T10:23:17.017Z,96890.00
2023-02-11T10:24:17.019Z,96894.00
2023-02-11T10:25:19.753Z,96890.00
2023-02-11T10:26:17.028Z,96889.00
2023-02-11T10:27:16.976Z,96889.00
2023-02-11T10:28:17.118Z,96889.00
2023-02-11T10:29:16.958Z,96890.00
2023-02-11T10:30:16.981Z,96890.00
2023-02-11T10:31:17.098Z,96889.00
2023-02-11T10:32:16.940Z,96881.00
2023-02-11T10:33:16.930Z,96885.00
2023-02-11T10:34:16.946Z,96877.00
2023-02-11T10:35:16.906Z,96879.00
2023-02-11T10:36:16.893Z,96873.00
2023-02-11T10:37:16.895Z,96869.00
2023-02-11T10:38:16.876Z,96869.00
2023-02-11T10:39:16.884Z,96869.00
2023-02-11T10:40:16.856Z,96871.00
2023-02-11T10:41:16.849Z,96875.00
2023-02-11T10:42:16.837Z,96875.00
2023-02-11T10:43:16.826Z,96871.00
2023-02-11T10:44:16.819Z,96873.00
2023-02-11T10:45:16.811Z,96871.00
2023-02-11T10:46:16.905Z,96871.00
2023-02-11T10:47:16.794Z,96869.00
2023-02-11T10:48:16.785Z,96869.00
2023-02-11T10:49:16.773Z,96869.00
2023-02-11T10:50:16.764Z,96867.00
2023-02-11T10:51:16.753Z,96865.00
2023-02-11T10:52:16.752Z,96867.00
2023-02-11T10:53:16.742Z,96867.00
2023-02-11T10:54:16.727Z,96865.00
2023-02-11T10:55:16.729Z,96859.00
2023-02-11T10:56:16.707Z,96857.00
2023-02-11T10:57:16.716Z,96853.00
2023-02-11T10:58:16.687Z,96851.00
2023-02-11T10:59:17.743Z,96851.00
2023-02-11T11:00:16.671Z,96853.00
2023-02-11T11:01:24.324Z,96855.00
2023-02-11T11:02:16.711Z,96861.00
2023-02-11T11:03:16.644Z,96859.00
2023-02-11T11:04:16.655Z,96855.00
2023-02-11T11:05:16.639Z,96857.00
2023-02-11T11:06:16.649Z,96857.00
2023-02-11T11:07:17.275Z,96859.00
2023-02-11T11:08:16.612Z,96859.00
2023-02-11T11:09:16.596Z,96859.00
2023-02-11T11:10:16.577Z,96857.00
2023-02-11T11:11:16.568Z,96853.00
2023-02-11T11:12:16.588Z,96847.00
2023-02-11T11:13:16.546Z,96843.00
2023-02-11T11:14:16.544Z,96842.00
2023-02-11T11:15:16.661Z,96840.00
2023-02-11T11:16:16.586Z,96836.00
2023-02-11T11:17:16.542Z,96832.00
2023-02-11T11:18:21.263Z,96832.00
2023-02-11T11:19:19.273Z,96830.00
2023-02-11T11:20:16.566Z,96828.00
2023-02-11T11:21:16.476Z,96824.00
2023-02-11T11:22:16.544Z,96824.00
2023-02-11T11:23:16.460Z,96824.00
2023-02-11T11:24:16.450Z,96824.00
2023-02-11T11:25:16.440Z,96820.00
2023-02-11T11:26:16.428Z,96822.00
2023-02-11T11:27:16.424Z,96818.00
2023-02-11T11:28:16.461Z,96816.00
2023-02-11T11:29:16.401Z,96814.00
2023-02-11T11:30:16.428Z,96812.00
2023-02-11T11:31:16.512Z,96810.00
2023-02-11T11:32:18.855Z,96812.00
2023-02-11T11:33:16.364Z,96810.00
2023-02-11T11:34:16.375Z,96808.00
2023-02-11T11:35:16.343Z,96808.00
2023-02-11T11:36:16.340Z,96806.00
2023-02-11T11:37:16.327Z,96804.00
2023-02-11T11:38:16.320Z,96806.00
2023-02-11T11:39:16.303Z,96802.00
2023-02-11T11:40:16.310Z,96798.00
2023-02-11T11:41:16.287Z,96793.00
2023-02-11T11:42:16.277Z,96791.00
2023-02-11T11:43:16.284Z,96791.00
2023-02-11T11:44:16.263Z,96787.00
2023-02-11T11:45:16.255Z,96785.00
2023-02-11T11:46:16.293Z,96787.00
2023-02-11T11:47:16.233Z,96785.00
2023-02-11T11:48:16.242Z,96787.00
2023-02-11T11:49:16.254Z,96783.00
2023-02-11T11:50:16.287Z,96777.00
2023-02-11T11:51:16.190Z,96771.00
2023-02-11T11:52:16.188Z,96771.00
2023-02-11T11:53:16.792Z,96771.00
2023-02-11T11:54:16.169Z,96771.00
2023-02-11T11:55:16.152Z,96769.00
2023-02-11T11:56:16.197Z,96769.00
2023-02-11T11:57:16.132Z,96769.00
2023-02-11T11:58:16.150Z,96769.00
2023-02-11T11:59:16.118Z,96775.00
2023-02-11T12:00:16.105Z,96773.00
2023-02-11T12:01:16.099Z,96767.00
2023-02-11T12:02:16.198Z,96763.00
2023-02-11T12:03:16.167Z,96759.00
2023-02-11T12:04:16.091Z,96761.00
2023-02-11T12:05:16.082Z,96757.00
2023-02-11T12:06:16.807Z,96755.00
2023-02-11T12:07:16.041Z,96757.00
2023-02-11T12:08:16.050Z,96755.00
2023-02-11T12:09:16.031Z,96753.00
2023-02-11T12:10:16.008Z,96753.00
2023-02-11T12:11:16.001Z,96753.00
2023-02-11T12:12:15.990Z,96757.00
2023-02-11T12:13:15.989Z,96755.00
2023-02-11T12:14:15.974Z,96757.00
2023-02-11T12:15:15.979Z,96753.00
2023-02-11T12:16:15.970Z,96755.00
2023-02-11T12:17:15.944Z,96755.00
2023-02-11T12:18:15.967Z,96753.00
2023-02-11T12:19:15.930Z,96755.00
2023-02-11T12:20:15.926Z,96757.00
2023-02-11T12:21:15.910Z,96761.00
2023-02-11T12:22:15.925Z,96757.00
2023-02-11T12:23:15.896Z,96759.00
2023-02-11T12:24:17.414Z,96759.00
2023-02-11T12:25:16.010Z,96757.00
2023-02-11T12:26:16.011Z,96757.00
2023-02-11T12:27:16.005Z,96755.00
2023-02-11T12:28:16.031Z,96757.00
2023-02-11T12:29:16.800Z,96757.00
2023-02-11T12:30:15.976Z,96757.00
2023-02-11T12:31:16.170Z,96755.00
2023-02-11T12:32:16.009Z,96753.00
2023-02-11T12:33:15.937Z,96751.00
2023-02-11T12:34:15.932Z,96751.00
2023-02-11T12:35:15.931Z,96753.00
2023-02-11T12:36:15.921Z,96753.00
2023-02-11T12:37:15.910Z,96748.00
2023-02-11T12:38:15.994Z,96749.00
2023-02-11T12:39:15.887Z,96746.00